createdAt,value
2023-02-07T00:01:35.452Z,9.00
2023-02-07T00:04:04.035Z,9.10
2023-02-07T00:06:35.486Z,8.00
2023-02-07T00:09:06.347Z,12.30
2023-02-07T00:11:36.808Z,11.50
2023-02-07T00:14:05.927Z,17.30
2023-02-07T00:16:34.794Z,11.70
2023-02-07T00:19:05.501Z,10.20
2023-02-07T00:21:33.816Z,12.70
2023-02-07T00:24:01.994Z,12.00
2023-02-07T00:26:30.271Z,14.20
2023-02-07T00:28:58.690Z,14.50
2023-02-07T00:31:30.245Z,13.50
2023-02-07T00:34:02.048Z,11.30
2023-02-07T00:39:06.618Z,11.30
2023-02-07T00:41:35.172Z,11.30
2023-02-07T00:44:03.780Z,13.40
2023-02-07T00:46:32.915Z,11.80
2023-02-07T00:49:01.338Z,11.20
2023-02-07T00:51:29.507Z,13.00
2023-02-07T00:54:00.255Z,11.00
2023-02-07T00:56:30.524Z,9.90
2023-02-07T00:59:00.391Z,11.40
2023-02-07T01:01:29.039Z,12.70
2023-02-07T01:03:57.839Z,17.50
2023-02-07T01:06:28.172Z,12.20
2023-02-07T01:08:59.292Z,14.60
2023-02-07T01:11:29.500Z,14.00
2023-02-07T01:14:01.711Z,16.50
2023-02-07T01:16:33.324Z,14.00
2023-02-07T01:19:07.033Z,13.70
2023-02-07T01:21:35.784Z,13.50
2023-02-07T01:24:06.932Z,12.80
2023-02-07T01:26:37.600Z,13.10
2023-02-07T01:29:06.612Z,10.70
2023-02-07T01:31:34.944Z,11.70
2023-02-07T01:34:05.550Z,13.20
2023-02-07T01:36:34.042Z,10.70
2023-02-07T01:39:04.228Z,9.90
2023-02-07T01:41:36.902Z,11.80
2023-02-07T01:44:07.702Z,10.00
2023-02-07T01:46:37.017Z,11.90
2023-02-07T01:49:12.365Z,10.60
2023-02-07T01:51:46.057Z,9.30
2023-02-07T01:54:16.636Z,12.40
2023-02-07T01:56:49.199Z,18.20
2023-02-07T01:59:17.727Z,16.90
2023-02-07T02:01:46.969Z,15.30
2023-02-07T02:04:15.156Z,19.50
2023-02-07T02:06:46.467Z,16.10
2023-02-07T02:09:16.876Z,18.60
2023-02-07T02:11:57.390Z,18.10
2023-02-07T02:14:47.806Z,25.90
2023-02-07T02:17:33.679Z,30.30
2023-02-07T02:20:27.071Z,45.30
2023-02-07T02:23:27.984Z,76.00
2023-02-07T02:26:33.168Z,84.30
2023-02-07T02:29:25.624Z,80.10
2023-02-07T02:31:59.553Z,81.00
2023-02-07T02:34:57.453Z,60.00
2023-02-07T02:37:37.980Z,38.20
2023-02-07T02:40:09.454Z,20.90
2023-02-07T02:42:46.426Z,19.20
2023-02-07T02:45:42.974Z,15.40
2023-02-07T02:48:12.234Z,13.20
2023-02-07T02:50:48.292Z,13.60
2023-02-07T02:53:17.032Z,11.70
2023-02-07T02:56:22.753Z,7.90
2023-02-07T02:59:09.153Z,9.10
2023-02-07T03:02:22.539Z,8.50
2023-02-07T03:05:07.761Z,5.60
2023-02-07T03:07:44.601Z,6.50
2023-02-07T03:10:30.090Z,6.20
2023-02-07T03:13:25.961Z,8.20
2023-02-07T03:16:21.930Z,12.10
2023-02-07T03:19:07.164Z,9.20
2023-02-07T03:21:46.016Z,14.40
2023-02-07T03:24:18.609Z,15.70
2023-02-07T03:26:51.025Z,21.20
2023-02-07T03:29:21.849Z,24.50
2023-02-07T03:31:58.095Z,28.60
2023-02-07T03:34:36.753Z,19.30
2023-02-07T03:37:12.878Z,12.80
2023-02-07T03:39:41.220Z,10.00
2023-02-07T03:42:26.695Z,8.50
2023-02-07T03:44:57.227Z,6.70
2023-02-07T03:47:28.109Z,7.70
2023-02-07T03:49:56.618Z,6.60
2023-02-07T03:52:26.092Z,7.60
2023-02-07T03:54:56.761Z,8.20
2023-02-07T03:57:24.912Z,6.60
2023-02-07T03:59:53.088Z,6.00
2023-02-07T04:02:21.500Z,7.20
2023-02-07T04:04:49.745Z,6.30
2023-02-07T04:07:18.067Z,10.80
2023-02-07T04:09:46.295Z,13.80
2023-02-07T04:12:14.455Z,20.00
2023-02-07T04:14:42.803Z,14.70
2023-02-07T04:17:11.190Z,13.10
2023-02-07T04:19:39.623Z,9.90
2023-02-07T04:22:07.751Z,11.70
2023-02-07T04:24:36.375Z,6.00
2023-02-07T04:27:04.515Z,6.50
2023-02-07T04:29:32.763Z,7.40
2023-02-07T04:32:01.166Z,7.70
2023-02-07T04:34:29.345Z,8.00
2023-02-07T04:36:57.564Z,10.90
2023-02-07T04:39:25.853Z,7.60
2023-02-07T04:41:54.201Z,9.80
2023-02-07T04:44:22.448Z,5.80
2023-02-07T04:46:50.615Z,9.10
2023-02-07T04:49:18.872Z,6.90
2023-02-07T04:51:47.043Z,6.90
2023-02-07T04:54:15.284Z,8.20
2023-02-07T04:56:43.403Z,7.80
2023-02-07T04:59:11.774Z,9.90
2023-02-07T05:01:39.895Z,11.30
2023-02-07T05:04:08.552Z,12.00
2023-02-07T05:06:36.943Z,12.10
2023-02-07T05:09:05.137Z,14.70
2023-02-07T05:11:33.283Z,10.90
2023-02-07T05:14:01.395Z,13.00
2023-02-07T05:16:29.563Z,13.90
2023-02-07T05:18:57.759Z,10.30
2023-02-07T05:21:26.188Z,11.20
2023-02-07T05:23:54.388Z,10.10
2023-02-07T05:26:22.828Z,10.40
2023-02-07T05:28:51.004Z,10.30
2023-02-07T05:31:19.230Z,8.00
2023-02-07T05:33:48.437Z,9.10
2023-02-07T05:36:16.589Z,10.60
2023-02-07T05:38:44.794Z,9.90
2023-02-07T05:41:12.922Z,12.30
2023-02-07T05:43:41.018Z,14.10
2023-02-07T05:46:09.160Z,14.00
2023-02-07T05:48:37.823Z,14.90
2023-02-07T05:51:06.035Z,13.00
2023-02-07T05:53:34.270Z,16.10
2023-02-07T05:56:04.608Z,11.50
2023-02-07T05:58:32.896Z,11.80
2023-02-07T06:01:01.073Z,14.20
2023-02-07T06:03:29.265Z,12.00
2023-02-07T06:05:57.462Z,18.00
2023-02-07T06:08:25.697Z,18.20
2023-02-07T06:10:53.811Z,18.70
2023-02-07T06:13:22.790Z,20.80
2023-02-07T06:15:51.094Z,19.90
2023-02-07T06:18:19.680Z,19.70
2023-02-07T06:20:50.897Z,15.80
2023-02-07T06:23:20.935Z,38.60
2023-02-07T06:25:49.183Z,26.10
2023-02-07T06:28:17.354Z,22.00
2023-02-07T06:30:45.923Z,32.10
2023-02-07T06:33:14.271Z,19.80
2023-02-07T06:35:47.327Z,13.80
2023-02-07T06:38:17.046Z,13.50
2023-02-07T06:40:45.977Z,10.60
2023-02-07T06:43:15.218Z,12.20
2023-02-07T06:45:43.440Z,14.70
2023-02-07T06:48:11.623Z,16.50
2023-02-07T06:50:39.974Z,16.10
2023-02-07T06:53:08.128Z,16.70
2023-02-07T06:55:39.111Z,16.60
2023-02-07T06:58:07.964Z,14.00
2023-02-07T07:00:36.642Z,18.60
2023-02-07T07:03:06.489Z,19.90
2023-02-07T07:05:35.512Z,16.90
2023-02-07T07:08:04.739Z,25.00
2023-02-07T07:10:33.269Z,20.60
2023-02-07T07:13:01.619Z,19.90
2023-02-07T07:15:30.099Z,25.10
2023-02-07T07:17:58.679Z,21.20
2023-02-07T07:20:27.304Z,26.90
2023-02-07T07:22:55.632Z,20.60
2023-02-07T07:25:24.121Z,22.60
2023-02-07T07:27:53.313Z,24.70
2023-02-07T07:30:21.817Z,21.40
2023-02-07T07:32:50.593Z,25.10
2023-02-07T07:35:19.711Z,19.00
2023-02-07T07:37:48.223Z,21.00
2023-02-07T07:40:16.771Z,22.40
2023-02-07T07:42:45.312Z,22.50
2023-02-07T07:45:31.989Z,16.20
2023-02-07T07:48:00.621Z,17.00
2023-02-07T07:50:29.082Z,29.70
2023-02-07T07:52:57.492Z,20.30
2023-02-07T07:55:26.374Z,14.00
2023-02-07T07:57:54.816Z,22.10
2023-02-07T08:00:23.258Z,25.30
2023-02-07T08:02:52.039Z,41.90
2023-02-07T08:05:20.500Z,26.00
2023-02-07T08:07:49.154Z,24.10
2023-02-07T08:10:18.057Z,20.20
2023-02-07T08:12:46.481Z,19.00
2023-02-07T08:15:14.892Z,16.80
2023-02-07T08:17:43.191Z,17.90
2023-02-07T08:20:12.869Z,19.50
2023-02-07T08:22:41.519Z,12.30
2023-02-07T08:25:10.404Z,11.90
2023-02-07T08:27:39.054Z,14.10
2023-02-07T08:30:09.361Z,16.50
2023-02-07T08:32:39.809Z,37.80
2023-02-07T08:35:09.671Z,20.70
2023-02-07T08:37:39.451Z,16.60
2023-02-07T08:40:08.633Z,14.00
2023-02-07T08:42:37.820Z,12.80
2023-02-07T08:45:06.580Z,13.10
2023-02-07T08:47:34.935Z,14.10
2023-02-07T08:50:04.953Z,10.50
2023-02-07T08:52:33.509Z,12.90
2023-02-07T08:55:01.853Z,13.40
2023-02-07T08:57:39.331Z,12.20
2023-02-07T09:00:09.050Z,14.50
2023-02-07T09:02:37.469Z,17.80
2023-02-07T09:05:06.189Z,21.60
2023-02-07T09:07:34.594Z,19.30
2023-02-07T09:10:04.895Z,21.80
2023-02-07T09:12:34.809Z,13.70
2023-02-07T09:15:05.029Z,16.70
2023-02-07T09:17:33.644Z,14.50
2023-02-07T09:20:01.865Z,9.60
2023-02-07T09:22:31.868Z,10.80
2023-02-07T09:25:01.220Z,12.20
2023-02-07T09:27:30.554Z,7.20
2023-02-07T09:29:58.788Z,11.00
2023-02-07T09:32:27.191Z,11.00
2023-02-07T09:34:55.545Z,10.20
2023-02-07T09:37:23.826Z,12.60
2023-02-07T09:39:52.060Z,11.90
2023-02-07T09:42:41.259Z,14.40
2023-02-07T09:45:18.231Z,15.80
2023-02-07T09:47:51.270Z,15.70
2023-02-07T09:50:28.462Z,16.50
2023-02-07T09:53:19.852Z,20.40
2023-02-07T09:55:53.316Z,15.80
2023-02-07T10:01:14.794Z,21.30
2023-02-07T10:03:52.623Z,20.20
2023-02-07T10:06:27.350Z,20.70
2023-02-07T10:09:01.115Z,20.10
2023-02-07T10:11:54.134Z,19.80
2023-02-07T10:14:25.359Z,20.00
2023-02-07T10:17:16.526Z,18.60
2023-02-07T10:20:27.976Z,24.60
2023-02-07T10:23:29.508Z,16.50
2023-02-07T10:26:28.574Z,23.40
2023-02-07T10:29:08.844Z,17.70
2023-02-07T10:31:46.302Z,19.00
2023-02-07T10:34:21.525Z,14.20
2023-02-07T10:36:53.448Z,11.90
2023-02-07T10:39:37.507Z,15.50
2023-02-07T10:42:06.046Z,14.20
2023-02-07T10:44:35.467Z,12.80
2023-02-07T10:47:07.256Z,14.80
2023-02-07T10:49:38.676Z,12.30
2023-02-07T10:52:14.909Z,13.50
2023-02-07T10:54:55.758Z,14.00
2023-02-07T10:57:24.820Z,12.80
2023-02-07T11:00:11.037Z,14.80
2023-02-07T11:02:50.417Z,12.40
2023-02-07T11:05:19.077Z,15.90
2023-02-07T11:08:01.180Z,13.50
2023-02-07T11:10:35.572Z,15.60
2023-02-07T11:13:11.123Z,14.70
2023-02-07T11:15:39.553Z,17.90
2023-02-07T11:18:08.186Z,15.80
2023-02-07T11:20:39.794Z,15.80
2023-02-07T11:23:14.130Z,18.20
2023-02-07T11:25:45.818Z,17.70
2023-02-07T11:28:30.802Z,13.90
2023-02-07T11:31:06.428Z,15.10
2023-02-07T11:33:36.866Z,18.50
2023-02-07T11:36:17.088Z,16.30
2023-02-07T11:38:51.272Z,18.20
2023-02-07T11:41:25.806Z,18.30
2023-02-07T11:44:15.674Z,20.40
2023-02-07T11:46:49.964Z,22.40
2023-02-07T11:49:29.477Z,18.10
2023-02-07T11:52:00.688Z,16.40
2023-02-07T11:54:31.404Z,22.00
2023-02-07T11:57:10.583Z,19.30
2023-02-07T11:59:49.653Z,16.20
2023-02-07T12:02:24.549Z,14.80
2023-02-07T12:04:58.985Z,18.00
2023-02-07T12:07:38.050Z,12.50
2023-02-07T12:10:23.112Z,14.20
2023-02-07T12:13:35.335Z,14.40
2023-02-07T12:16:37.546Z,16.90
2023-02-07T12:19:13.366Z,16.20
2023-02-07T12:21:53.809Z,14.80
2023-02-07T12:24:35.199Z,16.50
2023-02-07T12:27:09.233Z,18.40
2023-02-07T12:30:02.145Z,18.50
2023-02-07T12:32:38.102Z,14.10
2023-02-07T12:35:28.820Z,15.20
2023-02-07T12:38:21.252Z,14.30
2023-02-07T12:41:12.892Z,16.70
2023-02-07T12:44:10.272Z,20.40
2023-02-07T12:47:00.258Z,19.40
2023-02-07T12:49:59.646Z,24.80
2023-02-07T12:52:45.116Z,26.00
2023-02-07T12:55:25.713Z,27.30
2023-02-07T12:58:06.223Z,26.80
2023-02-07T13:00:40.872Z,25.30
2023-02-07T13:03:18.242Z,22.30
2023-02-07T13:06:18.338Z,24.20
2023-02-07T13:09:02.417Z,22.10
2023-02-07T13:11:40.236Z,19.40
2023-02-07T13:14:21.674Z,18.50
2023-02-07T13:16:49.881Z,23.60
2023-02-07T13:19:32.239Z,22.80
2023-02-07T13:22:09.404Z,27.10
2023-02-07T13:24:42.731Z,20.10
2023-02-07T13:27:20.719Z,21.20
2023-02-07T13:29:51.524Z,20.60
2023-02-07T13:32:28.896Z,23.50
2023-02-07T13:35:15.134Z,20.20
2023-02-07T13:37:55.496Z,18.40
2023-02-07T13:41:04.339Z,23.10
2023-02-07T13:44:08.096Z,23.20
2023-02-07T13:47:12.261Z,19.50
2023-02-07T13:49:49.855Z,21.40
2023-02-07T13:55:15.309Z,17.70
2023-02-07T13:58:05.615Z,19.20
2023-02-07T14:00:59.698Z,17.70
2023-02-07T14:03:35.494Z,20.10
2023-02-07T14:06:28.872Z,23.50
2023-02-07T14:09:02.098Z,24.10
2023-02-07T14:11:44.364Z,24.80
2023-02-07T14:14:23.612Z,21.10
2023-02-07T14:17:05.610Z,19.00
2023-02-07T14:19:58.057Z,23.00
2023-02-07T14:22:42.996Z,31.00
2023-02-07T14:25:22.476Z,29.40
2023-02-07T14:27:50.686Z,27.00
2023-02-07T14:30:22.664Z,25.20
2023-02-07T14:33:15.623Z,23.90
2023-02-07T14:36:05.349Z,25.00
2023-02-07T14:38:39.476Z,24.00
2023-02-07T14:41:13.108Z,23.10
2023-02-07T14:43:59.746Z,24.90
2023-02-07T14:46:42.176Z,28.50
2023-02-07T14:49:46.258Z,25.00
2023-02-07T14:52:29.105Z,26.60
2023-02-07T14:55:17.955Z,27.70
2023-02-07T14:58:01.175Z,28.70
2023-02-07T15:00:50.359Z,24.00
2023-02-07T15:03:21.397Z,21.90
2023-02-07T15:05:54.298Z,27.20
2023-02-07T15:08:25.296Z,26.30
2023-02-07T15:10:59.601Z,24.30
2023-02-07T15:13:35.556Z,26.00
2023-02-07T15:16:08.332Z,23.90
2023-02-07T15:18:43.164Z,28.30
2023-02-07T15:21:34.787Z,33.40
2023-02-07T15:24:18.037Z,35.00
2023-02-07T15:27:02.520Z,37.10
2023-02-07T15:29:34.276Z,41.70
2023-02-07T15:32:22.415Z,43.10
2023-02-07T15:34:50.689Z,40.10
2023-02-07T15:37:25.044Z,44.20
2023-02-07T15:39:56.253Z,37.60
2023-02-07T15:42:24.949Z,39.60
2023-02-07T15:44:57.902Z,41.00
2023-02-07T15:47:29.202Z,36.00
2023-02-07T15:50:21.722Z,32.50
2023-02-07T15:52:54.254Z,44.10
2023-02-07T15:55:43.448Z,39.90
2023-02-07T15:58:31.972Z,40.70
2023-02-07T16:01:15.923Z,41.60
2023-02-07T16:03:47.749Z,37.30
2023-02-07T16:06:25.331Z,40.30
2023-02-07T16:09:03.421Z,35.50
2023-02-07T16:11:31.592Z,28.20
2023-02-07T16:13:59.777Z,31.70
2023-02-07T16:16:40.608Z,27.50
2023-02-07T16:19:20.373Z,29.50
2023-02-07T16:21:57.772Z,27.90
2023-02-07T16:24:27.852Z,31.70
2023-02-07T16:26:57.213Z,37.20
2023-02-07T16:29:27.670Z,34.00
2023-02-07T16:31:56.358Z,33.50
2023-02-07T16:34:24.989Z,33.30
2023-02-07T16:36:56.241Z,24.10
2023-02-07T16:39:26.025Z,28.50
2023-02-07T16:42:05.062Z,27.80
2023-02-07T16:44:35.924Z,27.90
2023-02-07T16:47:04.376Z,29.10
2023-02-07T16:49:33.149Z,26.10
2023-02-07T16:52:01.612Z,25.50
2023-02-07T16:54:30.092Z,25.70
2023-02-07T16:57:03.753Z,28.70
2023-02-07T16:59:32.377Z,32.50
2023-02-07T17:02:00.730Z,33.80
2023-02-07T17:04:29.424Z,34.30
2023-02-07T17:06:57.805Z,43.50
2023-02-07T17:09:26.634Z,39.50
2023-02-07T17:11:56.082Z,46.00
2023-02-07T17:14:26.309Z,47.70
2023-02-07T17:16:55.270Z,44.50
2023-02-07T17:19:24.166Z,46.30
2023-02-07T17:21:52.920Z,45.50
2023-02-07T17:24:21.384Z,41.70
2023-02-07T17:26:53.705Z,39.40
2023-02-07T17:29:23.055Z,30.80
2023-02-07T17:31:51.606Z,35.40
2023-02-07T17:34:19.920Z,37.50
2023-02-07T17:36:50.040Z,44.60
2023-02-07T17:39:19.918Z,48.50
2023-02-07T17:41:50.841Z,44.60
2023-02-07T17:44:24.388Z,45.80
2023-02-07T17:46:53.065Z,41.60
2023-02-07T17:49:21.535Z,44.60
2023-02-07T17:51:49.891Z,43.30
2023-02-07T17:54:18.312Z,40.10
2023-02-07T17:56:46.681Z,41.50
2023-02-07T17:59:23.808Z,50.10
2023-02-07T18:01:52.539Z,46.10
2023-02-07T18:04:22.069Z,42.50
2023-02-07T18:06:51.573Z,45.40
2023-02-07T18:09:20.335Z,44.10
2023-02-07T18:11:49.347Z,49.50
2023-02-07T18:14:17.585Z,42.20
2023-02-07T18:16:45.827Z,54.70
2023-02-07T18:19:18.613Z,53.20
2023-02-07T18:21:47.434Z,58.30
2023-02-07T18:24:16.133Z,56.40
2023-02-07T18:26:46.585Z,58.70
2023-02-07T18:29:16.126Z,51.00
2023-02-07T18:31:51.950Z,47.50
2023-02-07T18:34:20.624Z,45.80
2023-02-07T18:36:48.919Z,49.20
2023-02-07T18:39:17.983Z,49.20
2023-02-07T18:41:46.239Z,50.50
2023-02-07T18:44:14.580Z,59.10
2023-02-07T18:46:43.132Z,59.80
2023-02-07T18:49:14.000Z,65.20
2023-02-07T18:51:42.476Z,70.60
2023-02-07T18:54:11.334Z,68.90
2023-02-07T18:56:41.749Z,73.70
2023-02-07T18:59:10.590Z,76.10
2023-02-07T19:01:39.162Z,60.30
2023-02-07T19:04:07.440Z,63.30
2023-02-07T19:06:35.801Z,60.70
2023-02-07T19:09:04.265Z,59.10
2023-02-07T19:11:32.598Z,61.20
2023-02-07T19:14:01.954Z,56.90
2023-02-07T19:16:31.661Z,57.20
2023-02-07T19:19:02.130Z,57.60
2023-02-07T19:21:32.446Z,54.20
2023-02-07T19:24:07.803Z,59.60
2023-02-07T19:26:39.568Z,60.90
2023-02-07T19:29:09.467Z,62.30
2023-02-07T19:31:40.536Z,54.80
2023-02-07T19:34:09.155Z,57.00
2023-02-07T19:36:38.155Z,51.50
2023-02-07T19:39:07.611Z,55.70
2023-02-07T19:41:35.983Z,52.90
2023-02-07T19:44:04.564Z,48.50
2023-02-07T19:46:33.025Z,50.00
2023-02-07T19:49:01.721Z,46.80
2023-02-07T19:51:32.156Z,49.80
2023-02-07T19:54:01.340Z,47.90
2023-02-07T19:56:34.737Z,54.40
2023-02-07T20:01:34.941Z,49.70
2023-02-07T20:04:03.528Z,51.40
2023-02-07T20:06:33.279Z,52.50
2023-02-07T20:09:04.488Z,51.40
2023-02-07T20:11:33.462Z,43.30
2023-02-07T20:14:03.695Z,47.10
2023-02-07T20:16:35.543Z,52.60
2023-02-07T20:19:06.930Z,50.80
2023-02-07T20:21:36.868Z,52.10
2023-02-07T20:24:05.570Z,53.40
2023-02-07T20:26:40.966Z,54.50
2023-02-07T20:29:13.218Z,61.50
2023-02-07T20:31:42.987Z,68.70
2023-02-07T20:34:11.696Z,78.60
2023-02-07T20:36:43.866Z,75.20
2023-02-07T20:39:18.529Z,71.40
2023-02-07T20:41:48.448Z,67.20
2023-02-07T20:44:18.213Z,69.70
2023-02-07T20:46:49.413Z,57.40
2023-02-07T20:49:26.226Z,48.70
2023-02-07T20:51:57.382Z,49.20
2023-02-07T20:54:28.403Z,46.70
2023-02-07T20:56:57.844Z,47.60
2023-02-07T20:59:32.802Z,48.20
2023-02-07T21:02:01.227Z,47.00
2023-02-07T21:04:30.316Z,45.40
2023-02-07T21:06:58.890Z,49.10
2023-02-07T21:09:27.632Z,40.00
2023-02-07T21:11:56.479Z,41.00
2023-02-07T21:14:27.770Z,35.10
2023-02-07T21:16:58.168Z,39.40
2023-02-07T21:19:26.684Z,38.40
2023-02-07T21:21:55.460Z,40.50
2023-02-07T21:24:24.070Z,40.00
2023-02-07T21:26:54.384Z,43.70
2023-02-07T21:29:23.865Z,41.20
2023-02-07T21:31:52.313Z,35.40
2023-02-07T21:34:25.624Z,42.60
2023-02-07T21:39:25.176Z,41.60
2023-02-07T21:41:53.478Z,51.20
2023-02-07T21:44:22.500Z,39.60
2023-02-07T21:46:51.495Z,38.40
2023-02-07T21:49:21.041Z,38.70
2023-02-07T21:51:50.604Z,37.60
2023-02-07T21:54:19.065Z,40.00
2023-02-07T21:56:50.675Z,35.70
2023-02-07T21:59:20.796Z,38.60
2023-02-07T22:01:50.234Z,37.80
2023-02-07T22:04:18.934Z,37.60
2023-02-07T22:06:49.502Z,40.60
2023-02-07T22:09:20.155Z,45.70
2023-02-07T22:11:48.693Z,44.90
2023-02-07T22:14:18.562Z,42.30
2023-02-07T22:16:51.577Z,44.70
2023-02-07T22:19:20.913Z,44.70
2023-02-07T22:21:50.633Z,40.20
2023-02-07T22:24:19.760Z,41.40
2023-02-07T22:26:48.255Z,39.50
2023-02-07T22:29:16.798Z,40.80
2023-02-07T22:31:45.432Z,39.10
2023-02-07T22:34:14.994Z,41.30
2023-02-07T22:36:45.225Z,44.00
2023-02-07T22:39:15.303Z,41.30
2023-02-07T22:41:46.135Z,41.40
2023-02-07T22:44:14.877Z,44.00
2023-02-07T22:46:44.441Z,43.40
2023-02-07T22:49:12.837Z,44.40
2023-02-07T22:51:41.420Z,48.00
2023-02-07T22:54:15.874Z,47.40
2023-02-07T22:56:46.048Z,52.20
2023-02-07T22:59:15.597Z,46.50
2023-02-07T23:01:50.812Z,45.60
2023-02-07T23:04:19.198Z,41.20
2023-02-07T23:06:48.394Z,40.90
2023-02-07T23:09:19.144Z,39.50
2023-02-07T23:11:47.990Z,37.80
2023-02-07T23:14:16.563Z,38.00
2023-02-07T23:16:45.110Z,37.00
2023-02-07T23:19:16.453Z,36.00
2023-02-07T23:21:45.634Z,37.70
2023-02-07T23:24:14.128Z,36.20
2023-02-07T23:26:43.362Z,35.70
2023-02-07T23:29:11.560Z,38.00
2023-02-07T23:31:40.096Z,33.40
2023-02-07T23:34:09.663Z,36.70
2023-02-07T23:36:39.104Z,37.50
2023-02-07T23:39:07.936Z,40.70
2023-02-07T23:41:37.443Z,38.00
2023-02-07T23:44:06.184Z,33.30
2023-02-07T23:46:35.253Z,38.30
2023-02-07T23:49:05.384Z,36.40
2023-02-07T23:51:34.189Z,41.20
2023-02-07T23:54:03.735Z,38.40
2023-02-07T23:56:32.239Z,43.10
2023-02-07T23:59:00.703Z,38.00
